BGSF

Kangerlussuaq Airport

Kangerlussuaq, Greenland
METAR BGSF 190850Z AUTO 04007KT 9999NDV NCD M05/M07 Q1013
Observed Flight Rules
Sep-19 @ 08:50 UTC (44 minutes ago)
Wind Clouds
40° at 7 knots
  • Clear skies
Temperatures Readings
Current -5°C / 23°F
Dewpoint -7°C / 19°F
Humidity 86%
Altimeter 29.91" Hg
Pressure 1013 hPa
Elevation 53
METAR BGSF 190850Z AUTO 04007KT 9999NDV NCD M05/M07 Q1013
Observed Flight Rules
Sep-19 @ 08:50 UTC
(44 minutes ago)
Wind
40° at 7 knots
Clouds
  • Clear skies
Temperature Dewpoint
-5°C / 23°F -7°C / 19°F
Humidity Altimeter Pressure
86% 29.91" Hg 1013 hPa